sensor_id;sensor_type;location;lat;lon;timestamp;P1;durP1;ratioP1;P2;durP2;ratioP2
69532;SDS011;56729;52.036;5.332;2022-08-21T00:00:19;9.35;;;4.57;;
69532;SDS011;56729;52.036;5.332;2022-08-21T00:01:25;14.60;;;4.95;;
69532;SDS011;56729;52.036;5.332;2022-08-21T00:02:30;8.82;;;4.93;;
69532;SDS011;56729;52.036;5.332;2022-08-21T00:03:32;8.30;;;4.78;;
69532;SDS011;56729;52.036;5.332;2022-08-21T00:04:34;9.32;;;4.55;;
69532;SDS011;56729;52.036;5.332;2022-08-21T00:05:38;9.35;;;4.75;;
69532;SDS011;56729;52.036;5.332;2022-08-21T00:06:42;9.57;;;4.20;;
69532;SDS011;56729;52.036;5.332;2022-08-21T00:07:44;11.98;;;5.57;;
69532;SDS011;56729;52.036;5.332;2022-08-21T00:08:46;7.13;;;4.03;;
69532;SDS011;56729;52.036;5.332;2022-08-21T00:09:48;9.02;;;4.55;;
69532;SDS011;56729;52.036;5.332;2022-08-21T00:10:50;8.20;;;4.70;;
69532;SDS011;56729;52.036;5.332;2022-08-21T00:11:52;8.73;;;4.32;;
69532;SDS011;56729;52.036;5.332;2022-08-21T00:12:54;11.18;;;4.38;;
69532;SDS011;56729;52.036;5.332;2022-08-21T00:13:56;9.05;;;4.57;;
69532;SDS011;56729;52.036;5.332;2022-08-21T00:14:58;8.02;;;4.60;;
69532;SDS011;56729;52.036;5.332;2022-08-21T00:16:00;7.38;;;4.50;;
69532;SDS011;56729;52.036;5.332;2022-08-21T00:17:04;12.60;;;4.00;;
69532;SDS011;56729;52.036;5.332;2022-08-21T00:18:07;8.40;;;3.83;;
69532;SDS011;56729;52.036;5.332;2022-08-21T00:19:12;11.85;;;4.30;;
69532;SDS011;56729;52.036;5.332;2022-08-21T00:20:15;8.32;;;4.18;;
69532;SDS011;56729;52.036;5.332;2022-08-21T00:21:18;7.90;;;4.43;;
69532;SDS011;56729;52.036;5.332;2022-08-21T00:22:20;10.50;;;4.47;;
69532;SDS011;56729;52.036;5.332;2022-08-21T00:23:22;9.77;;;4.32;;
69532;SDS011;56729;52.036;5.332;2022-08-21T00:24:24;10.85;;;4.95;;
69532;SDS011;56729;52.036;5.332;2022-08-21T00:25:27;8.75;;;3.75;;
69532;SDS011;56729;52.036;5.332;2022-08-21T00:26:29;10.15;;;4.57;;
69532;SDS011;56729;52.036;5.332;2022-08-21T00:27:32;8.43;;;4.00;;
69532;SDS011;56729;52.036;5.332;2022-08-21T00:28:33;7.50;;;4.18;;
69532;SDS011;56729;52.036;5.332;2022-08-21T00:29:36;8.75;;;4.55;;
69532;SDS011;56729;52.036;5.332;2022-08-21T00:30:38;7.75;;;4.57;;
69532;SDS011;56729;52.036;5.332;2022-08-21T00:31:41;8.32;;;4.97;;
69532;SDS011;56729;52.036;5.332;2022-08-21T00:32:44;12.27;;;5.18;;
69532;SDS011;56729;52.036;5.332;2022-08-21T00:33:46;10.88;;;4.78;;
69532;SDS011;56729;52.036;5.332;2022-08-21T00:34:48;8.68;;;5.20;;
69532;SDS011;56729;52.036;5.332;2022-08-21T00:35:50;10.70;;;4.65;;
69532;SDS011;56729;52.036;5.332;2022-08-21T00:36:52;10.55;;;4.95;;
69532;SDS011;56729;52.036;5.332;2022-08-21T00:37:54;15.53;;;5.30;;
69532;SDS011;56729;52.036;5.332;2022-08-21T00:38:56;12.07;;;4.80;;
69532;SDS011;56729;52.036;5.332;2022-08-21T00:39:58;12.65;;;4.50;;
69532;SDS011;56729;52.036;5.332;2022-08-21T00:41:01;8.80;;;4.90;;
69532;SDS011;56729;52.036;5.332;2022-08-21T00:42:26;11.25;;;4.70;;
69532;SDS011;56729;52.036;5.332;2022-08-21T00:43:31;9.75;;;4.40;;
69532;SDS011;56729;52.036;5.332;2022-08-21T00:44:35;10.07;;;4.07;;
69532;SDS011;56729;52.036;5.332;2022-08-21T00:45:37;8.80;;;4.72;;
69532;SDS011;56729;52.036;5.332;2022-08-21T00:46:40;9.43;;;4.45;;
69532;SDS011;56729;52.036;5.332;2022-08-21T00:47:44;8.73;;;4.53;;
69532;SDS011;56729;52.036;5.332;2022-08-21T00:48:45;9.20;;;4.23;;
69532;SDS011;56729;52.036;5.332;2022-08-21T00:49:48;10.30;;;4.30;;
69532;SDS011;56729;52.036;5.332;2022-08-21T00:50:52;11.88;;;4.60;;
69532;SDS011;56729;52.036;5.332;2022-08-21T00:52:07;14.13;;;5.60;;
69532;SDS011;56729;52.036;5.332;2022-08-21T00:53:12;11.07;;;5.32;;
69532;SDS011;56729;52.036;5.332;2022-08-21T00:54:16;9.68;;;4.75;;
69532;SDS011;56729;52.036;5.332;2022-08-21T00:55:21;10.50;;;4.63;;
69532;SDS011;56729;52.036;5.332;2022-08-21T00:56:26;9.50;;;4.78;;
69532;SDS011;56729;52.036;5.332;2022-08-21T00:57:32;8.32;;;4.80;;
69532;SDS011;56729;52.036;5.332;2022-08-21T00:58:40;11.50;;;5.15;;
69532;SDS011;56729;52.036;5.332;2022-08-21T00:59:45;9.60;;;5.03;;
69532;SDS011;56729;52.036;5.332;2022-08-21T01:00:50;12.38;;;5.57;;
69532;SDS011;56729;52.036;5.332;2022-08-21T01:01:53;8.40;;;5.65;;
69532;SDS011;56729;52.036;5.332;2022-08-21T01:02:58;14.48;;;5.85;;
69532;SDS011;56729;52.036;5.332;2022-08-21T01:04:07;10.23;;;6.25;;
69532;SDS011;56729;52.036;5.332;2022-08-21T01:05:09;11.15;;;5.55;;
69532;SDS011;56729;52.036;5.332;2022-08-21T01:06:12;12.68;;;5.18;;
69532;SDS011;56729;52.036;5.332;2022-08-21T01:07:14;9.10;;;5.68;;
69532;SDS011;56729;52.036;5.332;2022-08-21T01:08:17;8.98;;;4.93;;
69532;SDS011;56729;52.036;5.332;2022-08-21T01:09:20;9.65;;;5.13;;
69532;SDS011;56729;52.036;5.332;2022-08-21T01:10:22;10.70;;;5.10;;
69532;SDS011;56729;52.036;5.332;2022-08-21T01:11:24;10.43;;;4.45;;
69532;SDS011;56729;52.036;5.332;2022-08-21T01:12:27;9.80;;;4.65;;
69532;SDS011;56729;52.036;5.332;2022-08-21T01:13:29;10.50;;;5.72;;
69532;SDS011;56729;52.036;5.332;2022-08-21T01:14:35;15.05;;;5.07;;
69532;SDS011;56729;52.036;5.332;2022-08-21T01:15:38;14.10;;;5.97;;
69532;SDS011;56729;52.036;5.332;2022-08-21T01:16:45;10.88;;;5.93;;
69532;SDS011;56729;52.036;5.332;2022-08-21T01:17:50;11.68;;;5.93;;
69532;SDS011;56729;52.036;5.332;2022-08-21T01:18:53;14.50;;;5.88;;
69532;SDS011;56729;52.036;5.332;2022-08-21T01:19:58;11.88;;;5.82;;
69532;SDS011;56729;52.036;5.332;2022-08-21T01:21:23;15.07;;;7.37;;
69532;SDS011;56729;52.036;5.332;2022-08-21T01:22:28;11.20;;;5.85;;
69532;SDS011;56729;52.036;5.332;2022-08-21T01:23:30;12.73;;;6.28;;
69532;SDS011;56729;52.036;5.332;2022-08-21T01:24:33;9.77;;;6.88;;
69532;SDS011;56729;52.036;5.332;2022-08-21T01:25:35;11.75;;;6.30;;
69532;SDS011;56729;52.036;5.332;2022-08-21T01:26:37;10.07;;;6.05;;
69532;SDS011;56729;52.036;5.332;2022-08-21T01:27:39;10.18;;;5.55;;
69532;SDS011;56729;52.036;5.332;2022-08-21T01:28:44;11.07;;;5.72;;
69532;SDS011;56729;52.036;5.332;2022-08-21T01:29:52;9.93;;;5.88;;
69532;SDS011;56729;52.036;5.332;2022-08-21T01:30:57;11.68;;;6.32;;
69532;SDS011;56729;52.036;5.332;2022-08-21T01:32:03;10.90;;;5.50;;
69532;SDS011;56729;52.036;5.332;2022-08-21T01:33:07;12.27;;;6.15;;
69532;SDS011;56729;52.036;5.332;2022-08-21T01:34:09;10.98;;;6.60;;
69532;SDS011;56729;52.036;5.332;2022-08-21T01:35:12;12.88;;;7.22;;
69532;SDS011;56729;52.036;5.332;2022-08-21T01:36:15;13.02;;;6.70;;
69532;SDS011;56729;52.036;5.332;2022-08-21T01:37:18;12.73;;;7.00;;
69532;SDS011;56729;52.036;5.332;2022-08-21T01:38:22;13.10;;;6.75;;
69532;SDS011;56729;52.036;5.332;2022-08-21T01:39:27;13.13;;;7.32;;
69532;SDS011;56729;52.036;5.332;2022-08-21T01:40:29;12.25;;;6.93;;
69532;SDS011;56729;52.036;5.332;2022-08-21T01:41:31;14.73;;;6.85;;
69532;SDS011;56729;52.036;5.332;2022-08-21T01:42:33;12.50;;;6.20;;
69532;SDS011;56729;52.036;5.332;2022-08-21T01:43:36;10.95;;;5.97;;
69532;SDS011;56729;52.036;5.332;2022-08-21T01:44:40;8.68;;;5.55;;
69532;SDS011;56729;52.036;5.332;2022-08-21T01:45:42;13.30;;;6.32;;
69532;SDS011;56729;52.036;5.332;2022-08-21T01:46:44;13.75;;;5.90;;
69532;SDS011;56729;52.036;5.332;2022-08-21T01:47:46;12.68;;;5.85;;
69532;SDS011;56729;52.036;5.332;2022-08-21T01:48:48;11.43;;;5.45;;
69532;SDS011;56729;52.036;5.332;2022-08-21T01:49:50;11.40;;;6.05;;
69532;SDS011;56729;52.036;5.332;2022-08-21T01:50:52;10.95;;;5.68;;
69532;SDS011;56729;52.036;5.332;2022-08-21T01:51:57;12.57;;;5.38;;
69532;SDS011;56729;52.036;5.332;2022-08-21T01:52:59;13.50;;;5.67;;
69532;SDS011;56729;52.036;5.332;2022-08-21T01:54:00;13.73;;;6.20;;
69532;SDS011;56729;52.036;5.332;2022-08-21T01:55:03;13.30;;;6.13;;
69532;SDS011;56729;52.036;5.332;2022-08-21T01:56:08;13.07;;;5.72;;
69532;SDS011;56729;52.036;5.332;2022-08-21T01:57:13;12.82;;;6.25;;
69532;SDS011;56729;52.036;5.332;2022-08-21T01:58:15;11.20;;;5.18;;
69532;SDS011;56729;52.036;5.332;2022-08-21T01:59:18;12.38;;;5.97;;
69532;SDS011;56729;52.036;5.332;2022-08-21T02:00:20;10.90;;;5.88;;
69532;SDS011;56729;52.036;5.332;2022-08-21T02:01:26;9.90;;;5.78;;
69532;SDS011;56729;52.036;5.332;2022-08-21T02:02:28;10.98;;;5.70;;
69532;SDS011;56729;52.036;5.332;2022-08-21T02:03:29;13.90;;;5.33;;
69532;SDS011;56729;52.036;5.332;2022-08-21T02:04:36;9.43;;;6.07;;
69532;SDS011;56729;52.036;5.332;2022-08-21T02:05:38;13.35;;;6.20;;
69532;SDS011;56729;52.036;5.332;2022-08-21T02:06:40;11.25;;;5.65;;
69532;SDS011;56729;52.036;5.332;2022-08-21T02:07:47;16.63;;;5.78;;
69532;SDS011;56729;52.036;5.332;2022-08-21T02:08:51;11.75;;;5.60;;
69532;SDS011;56729;52.036;5.332;2022-08-21T02:09:53;9.43;;;5.50;;
69532;SDS011;56729;52.036;5.332;2022-08-21T02:10:56;10.60;;;5.30;;
69532;SDS011;56729;52.036;5.332;2022-08-21T02:11:58;10.68;;;5.82;;
69532;SDS011;56729;52.036;5.332;2022-08-21T02:13:00;11.68;;;6.15;;
69532;SDS011;56729;52.036;5.332;2022-08-21T02:14:02;14.33;;;5.93;;
69532;SDS011;56729;52.036;5.332;2022-08-21T02:15:05;13.23;;;6.15;;
69532;SDS011;56729;52.036;5.332;2022-08-21T02:16:11;10.43;;;6.25;;
69532;SDS011;56729;52.036;5.332;2022-08-21T02:17:19;13.43;;;6.32;;
69532;SDS011;56729;52.036;5.332;2022-08-21T02:18:21;11.40;;;6.00;;
69532;SDS011;56729;52.036;5.332;2022-08-21T02:19:23;18.48;;;6.45;;
69532;SDS011;56729;52.036;5.332;2022-08-21T02:21:35;9.05;;;6.03;;
69532;SDS011;56729;52.036;5.332;2022-08-21T02:22:37;10.73;;;6.20;;
69532;SDS011;56729;52.036;5.332;2022-08-21T02:23:39;11.13;;;6.22;;
69532;SDS011;56729;52.036;5.332;2022-08-21T02:24:41;9.73;;;6.47;;
69532;SDS011;56729;52.036;5.332;2022-08-21T02:25:58;12.10;;;6.03;;
69532;SDS011;56729;52.036;5.332;2022-08-21T02:27:02;14.32;;;6.32;;
69532;SDS011;56729;52.036;5.332;2022-08-21T02:28:05;14.32;;;6.82;;
69532;SDS011;56729;52.036;5.332;2022-08-21T02:29:10;13.60;;;6.85;;
69532;SDS011;56729;52.036;5.332;2022-08-21T02:30:13;15.13;;;7.15;;
69532;SDS011;56729;52.036;5.332;2022-08-21T02:31:17;12.65;;;7.68;;
69532;SDS011;56729;52.036;5.332;2022-08-21T02:32:19;12.55;;;7.18;;
69532;SDS011;56729;52.036;5.332;2022-08-21T02:33:22;13.48;;;6.85;;
69532;SDS011;56729;52.036;5.332;2022-08-21T02:34:25;14.77;;;6.45;;
69532;SDS011;56729;52.036;5.332;2022-08-21T02:35:29;15.67;;;7.23;;
69532;SDS011;56729;52.036;5.332;2022-08-21T02:36:32;15.27;;;7.28;;
69532;SDS011;56729;52.036;5.332;2022-08-21T02:37:34;13.48;;;7.25;;
69532;SDS011;56729;52.036;5.332;2022-08-21T02:38:43;16.30;;;7.47;;
69532;SDS011;56729;52.036;5.332;2022-08-21T02:39:45;12.27;;;6.38;;
69532;SDS011;56729;52.036;5.332;2022-08-21T02:40:48;15.55;;;7.78;;
69532;SDS011;56729;52.036;5.332;2022-08-21T02:41:52;9.80;;;6.45;;
69532;SDS011;56729;52.036;5.332;2022-08-21T02:42:54;13.18;;;6.70;;
69532;SDS011;56729;52.036;5.332;2022-08-21T02:43:56;12.15;;;6.30;;
69532;SDS011;56729;52.036;5.332;2022-08-21T02:44:58;10.15;;;6.38;;
69532;SDS011;56729;52.036;5.332;2022-08-21T02:46:00;12.47;;;6.70;;
69532;SDS011;56729;52.036;5.332;2022-08-21T02:47:03;14.63;;;7.45;;
69532;SDS011;56729;52.036;5.332;2022-08-21T02:48:09;14.93;;;7.35;;
69532;SDS011;56729;52.036;5.332;2022-08-21T02:49:12;17.92;;;8.07;;
69532;SDS011;56729;52.036;5.332;2022-08-21T02:50:17;12.85;;;6.93;;
69532;SDS011;56729;52.036;5.332;2022-08-21T02:51:21;11.20;;;7.22;;
69532;SDS011;56729;52.036;5.332;2022-08-21T02:52:24;13.35;;;7.30;;
69532;SDS011;56729;52.036;5.332;2022-08-21T02:53:26;14.90;;;6.97;;
69532;SDS011;56729;52.036;5.332;2022-08-21T02:54:29;13.45;;;7.28;;
69532;SDS011;56729;52.036;5.332;2022-08-21T02:55:31;13.70;;;7.65;;
69532;SDS011;56729;52.036;5.332;2022-08-21T02:56:34;10.57;;;7.03;;
69532;SDS011;56729;52.036;5.332;2022-08-21T02:57:36;14.13;;;7.15;;
69532;SDS011;56729;52.036;5.332;2022-08-21T02:58:40;12.93;;;6.97;;
69532;SDS011;56729;52.036;5.332;2022-08-21T02:59:44;14.18;;;6.93;;
69532;SDS011;56729;52.036;5.332;2022-08-21T03:00:46;13.57;;;7.50;;
69532;SDS011;56729;52.036;5.332;2022-08-21T03:01:48;13.90;;;7.03;;
69532;SDS011;56729;52.036;5.332;2022-08-21T03:02:50;16.98;;;7.65;;
69532;SDS011;56729;52.036;5.332;2022-08-21T03:03:52;13.77;;;7.63;;
69532;SDS011;56729;52.036;5.332;2022-08-21T03:04:54;15.98;;;8.07;;
69532;SDS011;56729;52.036;5.332;2022-08-21T03:05:57;14.23;;;8.00;;
69532;SDS011;56729;52.036;5.332;2022-08-21T03:06:59;12.23;;;7.33;;
69532;SDS011;56729;52.036;5.332;2022-08-21T03:08:03;13.32;;;7.25;;
69532;SDS011;56729;52.036;5.332;2022-08-21T03:09:06;13.20;;;6.95;;
69532;SDS011;56729;52.036;5.332;2022-08-21T03:10:08;17.17;;;7.38;;
69532;SDS011;56729;52.036;5.332;2022-08-21T03:11:12;14.40;;;7.45;;
69532;SDS011;56729;52.036;5.332;2022-08-21T03:12:15;15.05;;;6.93;;
69532;SDS011;56729;52.036;5.332;2022-08-21T03:13:18;14.23;;;7.45;;
69532;SDS011;56729;52.036;5.332;2022-08-21T03:14:21;14.57;;;7.53;;
69532;SDS011;56729;52.036;5.332;2022-08-21T03:15:23;15.35;;;7.30;;
69532;SDS011;56729;52.036;5.332;2022-08-21T03:16:26;16.52;;;8.75;;
69532;SDS011;56729;52.036;5.332;2022-08-21T03:17:33;13.80;;;7.27;;
69532;SDS011;56729;52.036;5.332;2022-08-21T03:18:35;20.83;;;8.30;;
69532;SDS011;56729;52.036;5.332;2022-08-21T03:19:38;15.90;;;7.20;;
69532;SDS011;56729;52.036;5.332;2022-08-21T03:20:41;13.57;;;7.57;;
69532;SDS011;56729;52.036;5.332;2022-08-21T03:21:43;13.90;;;7.97;;
69532;SDS011;56729;52.036;5.332;2022-08-21T03:22:45;17.10;;;7.80;;
69532;SDS011;56729;52.036;5.332;2022-08-21T03:23:53;12.90;;;7.15;;
69532;SDS011;56729;52.036;5.332;2022-08-21T03:24:55;18.73;;;8.38;;
69532;SDS011;56729;52.036;5.332;2022-08-21T03:25:58;13.45;;;7.68;;
69532;SDS011;56729;52.036;5.332;2022-08-21T03:27:00;19.08;;;7.28;;
69532;SDS011;56729;52.036;5.332;2022-08-21T03:28:04;14.90;;;8.20;;
69532;SDS011;56729;52.036;5.332;2022-08-21T03:29:07;15.05;;;7.90;;
69532;SDS011;56729;52.036;5.332;2022-08-21T03:30:10;15.25;;;7.68;;
69532;SDS011;56729;52.036;5.332;2022-08-21T03:31:13;12.77;;;7.53;;
69532;SDS011;56729;52.036;5.332;2022-08-21T03:32:15;12.27;;;7.28;;
69532;SDS011;56729;52.036;5.332;2022-08-21T03:33:17;12.63;;;7.20;;
69532;SDS011;56729;52.036;5.332;2022-08-21T03:34:23;14.32;;;7.20;;
69532;SDS011;56729;52.036;5.332;2022-08-21T03:35:25;11.65;;;7.28;;
69532;SDS011;56729;52.036;5.332;2022-08-21T03:36:28;11.10;;;7.68;;
69532;SDS011;56729;52.036;5.332;2022-08-21T03:37:30;15.50;;;7.85;;
69532;SDS011;56729;52.036;5.332;2022-08-21T03:38:34;11.97;;;7.37;;
69532;SDS011;56729;52.036;5.332;2022-08-21T03:39:36;13.45;;;6.35;;
69532;SDS011;56729;52.036;5.332;2022-08-21T03:40:39;17.05;;;8.25;;
69532;SDS011;56729;52.036;5.332;2022-08-21T03:41:42;15.07;;;7.30;;
69532;SDS011;56729;52.036;5.332;2022-08-21T03:42:44;20.35;;;8.18;;
69532;SDS011;56729;52.036;5.332;2022-08-21T03:43:49;12.82;;;7.13;;
69532;SDS011;56729;52.036;5.332;2022-08-21T03:44:51;14.68;;;7.97;;
69532;SDS011;56729;52.036;5.332;2022-08-21T03:45:53;14.43;;;7.85;;
69532;SDS011;56729;52.036;5.332;2022-08-21T03:46:55;16.55;;;7.32;;
69532;SDS011;56729;52.036;5.332;2022-08-21T03:48:00;16.15;;;8.70;;
69532;SDS011;56729;52.036;5.332;2022-08-21T03:49:03;14.20;;;8.00;;
69532;SDS011;56729;52.036;5.332;2022-08-21T03:50:05;13.48;;;7.75;;
69532;SDS011;56729;52.036;5.332;2022-08-21T03:51:09;12.32;;;7.65;;
69532;SDS011;56729;52.036;5.332;2022-08-21T03:52:11;16.13;;;7.82;;
69532;SDS011;56729;52.036;5.332;2022-08-21T03:53:13;12.30;;;7.63;;
69532;SDS011;56729;52.036;5.332;2022-08-21T03:54:17;13.50;;;7.15;;
69532;SDS011;56729;52.036;5.332;2022-08-21T03:55:20;12.82;;;6.75;;
69532;SDS011;56729;52.036;5.332;2022-08-21T03:56:22;10.90;;;6.28;;
69532;SDS011;56729;52.036;5.332;2022-08-21T03:57:23;11.80;;;7.25;;
69532;SDS011;56729;52.036;5.332;2022-08-21T03:58:27;12.82;;;7.30;;
69532;SDS011;56729;52.036;5.332;2022-08-21T03:59:29;13.80;;;7.07;;
69532;SDS011;56729;52.036;5.332;2022-08-21T04:00:31;15.85;;;7.43;;
69532;SDS011;56729;52.036;5.332;2022-08-21T04:01:33;18.17;;;7.72;;
69532;SDS011;56729;52.036;5.332;2022-08-21T04:02:36;14.77;;;8.10;;
69532;SDS011;56729;52.036;5.332;2022-08-21T04:03:39;14.45;;;8.90;;
69532;SDS011;56729;52.036;5.332;2022-08-21T04:04:41;16.85;;;8.25;;
69532;SDS011;56729;52.036;5.332;2022-08-21T04:05:43;13.98;;;7.57;;
69532;SDS011;56729;52.036;5.332;2022-08-21T04:06:47;16.20;;;7.28;;
69532;SDS011;56729;52.036;5.332;2022-08-21T04:07:49;12.85;;;7.53;;
69532;SDS011;56729;52.036;5.332;2022-08-21T04:08:51;12.57;;;8.02;;
69532;SDS011;56729;52.036;5.332;2022-08-21T04:09:53;18.03;;;8.23;;
69532;SDS011;56729;52.036;5.332;2022-08-21T04:10:55;19.55;;;8.50;;
69532;SDS011;56729;52.036;5.332;2022-08-21T04:11:59;16.92;;;7.95;;
69532;SDS011;56729;52.036;5.332;2022-08-21T04:13:02;14.48;;;7.78;;
69532;SDS011;56729;52.036;5.332;2022-08-21T04:14:05;14.60;;;8.63;;
69532;SDS011;56729;52.036;5.332;2022-08-21T04:15:07;17.98;;;7.78;;
69532;SDS011;56729;52.036;5.332;2022-08-21T04:16:09;16.85;;;7.38;;
69532;SDS011;56729;52.036;5.332;2022-08-21T04:17:11;15.82;;;6.85;;
69532;SDS011;56729;52.036;5.332;2022-08-21T04:18:13;14.27;;;7.75;;
69532;SDS011;56729;52.036;5.332;2022-08-21T04:19:15;15.50;;;7.88;;
69532;SDS011;56729;52.036;5.332;2022-08-21T04:20:17;15.33;;;7.83;;
69532;SDS011;56729;52.036;5.332;2022-08-21T04:21:20;14.75;;;7.70;;
69532;SDS011;56729;52.036;5.332;2022-08-21T04:22:24;16.83;;;7.72;;
69532;SDS011;56729;52.036;5.332;2022-08-21T04:23:26;14.93;;;8.05;;
69532;SDS011;56729;52.036;5.332;2022-08-21T04:24:28;14.65;;;7.35;;
69532;SDS011;56729;52.036;5.332;2022-08-21T04:25:30;13.65;;;6.93;;
69532;SDS011;56729;52.036;5.332;2022-08-21T04:26:36;12.45;;;7.00;;
69532;SDS011;56729;52.036;5.332;2022-08-21T04:27:39;14.15;;;7.63;;
69532;SDS011;56729;52.036;5.332;2022-08-21T04:28:41;13.32;;;8.30;;
69532;SDS011;56729;52.036;5.332;2022-08-21T04:29:44;13.02;;;7.50;;
69532;SDS011;56729;52.036;5.332;2022-08-21T04:30:46;16.00;;;7.60;;
69532;SDS011;56729;52.036;5.332;2022-08-21T04:31:48;19.00;;;7.70;;
69532;SDS011;56729;52.036;5.332;2022-08-21T04:32:50;15.65;;;7.75;;
69532;SDS011;56729;52.036;5.332;2022-08-21T04:33:53;14.60;;;8.20;;
69532;SDS011;56729;52.036;5.332;2022-08-21T04:34:59;15.57;;;8.73;;
69532;SDS011;56729;52.036;5.332;2022-08-21T04:36:02;15.40;;;8.55;;
69532;SDS011;56729;52.036;5.332;2022-08-21T04:37:05;13.25;;;7.38;;
69532;SDS011;56729;52.036;5.332;2022-08-21T04:38:06;15.57;;;8.80;;
69532;SDS011;56729;52.036;5.332;2022-08-21T04:39:08;15.73;;;8.52;;
69532;SDS011;56729;52.036;5.332;2022-08-21T04:40:11;15.13;;;8.68;;
69532;SDS011;56729;52.036;5.332;2022-08-21T04:41:15;15.90;;;8.40;;
69532;SDS011;56729;52.036;5.332;2022-08-21T04:42:25;15.88;;;7.90;;
69532;SDS011;56729;52.036;5.332;2022-08-21T04:43:28;16.70;;;8.50;;
69532;SDS011;56729;52.036;5.332;2022-08-21T04:44:31;14.57;;;7.68;;
69532;SDS011;56729;52.036;5.332;2022-08-21T04:45:34;13.57;;;8.13;;
69532;SDS011;56729;52.036;5.332;2022-08-21T04:46:41;18.08;;;9.18;;
69532;SDS011;56729;52.036;5.332;2022-08-21T04:47:43;13.02;;;7.50;;
69532;SDS011;56729;52.036;5.332;2022-08-21T04:48:53;18.33;;;10.13;;
69532;SDS011;56729;52.036;5.332;2022-08-21T04:49:55;18.88;;;10.98;;
69532;SDS011;56729;52.036;5.332;2022-08-21T04:50:59;17.35;;;9.27;;
69532;SDS011;56729;52.036;5.332;2022-08-21T04:52:04;16.70;;;9.00;;
69532;SDS011;56729;52.036;5.332;2022-08-21T04:53:07;23.98;;;10.30;;
69532;SDS011;56729;52.036;5.332;2022-08-21T04:54:19;20.13;;;9.60;;
69532;SDS011;56729;52.036;5.332;2022-08-21T04:55:23;19.75;;;9.85;;
69532;SDS011;56729;52.036;5.332;2022-08-21T04:56:32;19.83;;;9.85;;
69532;SDS011;56729;52.036;5.332;2022-08-21T04:57:46;17.15;;;9.85;;
69532;SDS011;56729;52.036;5.332;2022-08-21T04:58:50;17.60;;;9.85;;
69532;SDS011;56729;52.036;5.332;2022-08-21T04:59:53;19.00;;;10.52;;
69532;SDS011;56729;52.036;5.332;2022-08-21T05:00:56;20.02;;;9.43;;
69532;SDS011;56729;52.036;5.332;2022-08-21T05:01:59;17.45;;;9.98;;
69532;SDS011;56729;52.036;5.332;2022-08-21T05:03:04;19.37;;;8.97;;
69532;SDS011;56729;52.036;5.332;2022-08-21T05:04:08;18.17;;;10.25;;
69532;SDS011;56729;52.036;5.332;2022-08-21T05:05:13;19.63;;;9.80;;
69532;SDS011;56729;52.036;5.332;2022-08-21T05:06:15;17.73;;;10.48;;
69532;SDS011;56729;52.036;5.332;2022-08-21T05:07:19;16.65;;;9.93;;
69532;SDS011;56729;52.036;5.332;2022-08-21T05:08:43;15.00;;;9.10;;
69532;SDS011;56729;52.036;5.332;2022-08-21T05:09:47;17.67;;;9.25;;
69532;SDS011;56729;52.036;5.332;2022-08-21T05:10:50;20.45;;;9.88;;
69532;SDS011;56729;52.036;5.332;2022-08-21T05:11:57;17.25;;;9.40;;
69532;SDS011;56729;52.036;5.332;2022-08-21T05:12:59;16.67;;;9.98;;
69532;SDS011;56729;52.036;5.332;2022-08-21T05:14:02;17.43;;;9.03;;
69532;SDS011;56729;52.036;5.332;2022-08-21T05:15:05;19.60;;;9.68;;
69532;SDS011;56729;52.036;5.332;2022-08-21T05:16:12;18.10;;;9.88;;
69532;SDS011;56729;52.036;5.332;2022-08-21T05:17:34;18.33;;;9.73;;
69532;SDS011;56729;52.036;5.332;2022-08-21T05:18:36;15.15;;;9.45;;
69532;SDS011;56729;52.036;5.332;2022-08-21T05:19:38;16.40;;;9.32;;
69532;SDS011;56729;52.036;5.332;2022-08-21T05:20:41;15.23;;;9.15;;
69532;SDS011;56729;52.036;5.332;2022-08-21T05:21:43;21.80;;;10.95;;
69532;SDS011;56729;52.036;5.332;2022-08-21T05:22:46;15.98;;;9.80;;
69532;SDS011;56729;52.036;5.332;2022-08-21T05:23:48;19.65;;;9.75;;
69532;SDS011;56729;52.036;5.332;2022-08-21T05:24:50;16.80;;;9.30;;
69532;SDS011;56729;52.036;5.332;2022-08-21T05:25:53;21.80;;;9.88;;
69532;SDS011;56729;52.036;5.332;2022-08-21T05:26:56;20.02;;;10.05;;
69532;SDS011;56729;52.036;5.332;2022-08-21T05:27:58;18.90;;;10.60;;
69532;SDS011;56729;52.036;5.332;2022-08-21T05:29:01;19.20;;;10.02;;
69532;SDS011;56729;52.036;5.332;2022-08-21T05:30:05;14.32;;;9.45;;
69532;SDS011;56729;52.036;5.332;2022-08-21T05:31:09;16.92;;;9.05;;
69532;SDS011;56729;52.036;5.332;2022-08-21T05:32:11;18.00;;;9.82;;
69532;SDS011;56729;52.036;5.332;2022-08-21T05:33:14;15.38;;;9.38;;
69532;SDS011;56729;52.036;5.332;2022-08-21T05:34:20;17.00;;;9.85;;
69532;SDS011;56729;52.036;5.332;2022-08-21T05:35:24;19.97;;;9.07;;
69532;SDS011;56729;52.036;5.332;2022-08-21T05:36:25;17.20;;;9.65;;
69532;SDS011;56729;52.036;5.332;2022-08-21T05:37:27;19.83;;;9.73;;
69532;SDS011;56729;52.036;5.332;2022-08-21T05:38:29;20.30;;;10.40;;
69532;SDS011;56729;52.036;5.332;2022-08-21T05:39:32;15.93;;;9.88;;
69532;SDS011;56729;52.036;5.332;2022-08-21T05:40:53;18.98;;;10.35;;
69532;SDS011;56729;52.036;5.332;2022-08-21T05:41:56;19.75;;;9.98;;
69532;SDS011;56729;52.036;5.332;2022-08-21T05:42:58;18.27;;;10.02;;
69532;SDS011;56729;52.036;5.332;2022-08-21T05:44:01;19.83;;;10.50;;
69532;SDS011;56729;52.036;5.332;2022-08-21T05:45:10;23.33;;;10.60;;
69532;SDS011;56729;52.036;5.332;2022-08-21T05:46:12;19.30;;;9.87;;
69532;SDS011;56729;52.036;5.332;2022-08-21T05:47:14;23.15;;;10.80;;
69532;SDS011;56729;52.036;5.332;2022-08-21T05:48:17;19.67;;;9.70;;
69532;SDS011;56729;52.036;5.332;2022-08-21T05:49:24;16.55;;;9.55;;
69532;SDS011;56729;52.036;5.332;2022-08-21T05:50:26;20.15;;;11.18;;
69532;SDS011;56729;52.036;5.332;2022-08-21T05:51:33;23.48;;;10.90;;
69532;SDS011;56729;52.036;5.332;2022-08-21T05:52:36;22.40;;;11.43;;
69532;SDS011;56729;52.036;5.332;2022-08-21T05:53:38;20.55;;;11.25;;
69532;SDS011;56729;52.036;5.332;2022-08-21T05:54:41;21.70;;;11.95;;
69532;SDS011;56729;52.036;5.332;2022-08-21T05:55:43;23.52;;;11.90;;
69532;SDS011;56729;52.036;5.332;2022-08-21T05:56:47;26.17;;;11.43;;
69532;SDS011;56729;52.036;5.332;2022-08-21T05:57:49;19.05;;;11.48;;
69532;SDS011;56729;52.036;5.332;2022-08-21T05:58:51;24.88;;;10.52;;
69532;SDS011;56729;52.036;5.332;2022-08-21T05:59:53;27.90;;;11.57;;
69532;SDS011;56729;52.036;5.332;2022-08-21T06:00:55;21.20;;;11.98;;
69532;SDS011;56729;52.036;5.332;2022-08-21T06:01:59;24.85;;;10.65;;
69532;SDS011;56729;52.036;5.332;2022-08-21T06:03:10;20.52;;;10.77;;
69532;SDS011;56729;52.036;5.332;2022-08-21T06:04:13;18.40;;;10.43;;
69532;SDS011;56729;52.036;5.332;2022-08-21T06:05:15;17.30;;;11.05;;
69532;SDS011;56729;52.036;5.332;2022-08-21T06:06:37;19.98;;;10.55;;
69532;SDS011;56729;52.036;5.332;2022-08-21T06:07:39;24.70;;;11.07;;
69532;SDS011;56729;52.036;5.332;2022-08-21T06:08:41;26.27;;;11.75;;
69532;SDS011;56729;52.036;5.332;2022-08-21T06:09:43;26.23;;;12.00;;
69532;SDS011;56729;52.036;5.332;2022-08-21T06:10:45;24.00;;;11.15;;
69532;SDS011;56729;52.036;5.332;2022-08-21T06:11:48;30.85;;;13.07;;
69532;SDS011;56729;52.036;5.332;2022-08-21T06:12:53;28.45;;;12.23;;
69532;SDS011;56729;52.036;5.332;2022-08-21T06:13:56;18.92;;;10.75;;
69532;SDS011;56729;52.036;5.332;2022-08-21T06:14:58;23.08;;;11.93;;
69532;SDS011;56729;52.036;5.332;2022-08-21T06:16:09;21.90;;;11.65;;
69532;SDS011;56729;52.036;5.332;2022-08-21T06:17:16;23.83;;;12.27;;
69532;SDS011;56729;52.036;5.332;2022-08-21T06:18:18;26.80;;;11.90;;
69532;SDS011;56729;52.036;5.332;2022-08-21T06:19:20;21.23;;;12.02;;